Time;durP1;ratioP1;P1;durP2;ratioP2;P2;SDS_P1;SDS_P2;PMS_P1;PMS_P2;Temp;Humidity;BMP_temperature;BMP_pressure;BME280_temperature;BME280_humidity;BME280_pressure;Samples;Min_cycle;Max_cycle;Signal;HPM_P1;HPM_P2
2022/09/09 00:02:01;;;;;;;3.15;2.08;;;23.40;99.90;;;;;;5017405;28;20021;-71
2022/09/09 00:04:38;;;;;;;3.22;2.38;;;23.50;99.90;;;;;;5035192;28;20463;-71
2022/09/09 00:07:06;;;;;;;3.80;2.83;;;23.50;99.90;;;;;;5034950;28;20064;-70
2022/09/09 00:09:59;;;;;;;4.47;2.72;;;23.50;99.90;;;;;;5035017;28;20021;-71
2022/09/09 00:12:48;;;;;;;4.47;3.20;;;23.50;99.90;;;;;;5017358;28;20116;-70
2022/09/09 00:15:25;;;;;;;4.03;2.65;;;23.50;99.90;;;;;;5034860;28;20395;-70
2022/09/09 00:17:56;;;;;;;2.63;2.30;;;23.40;99.90;;;;;;5034734;28;20075;-70
2022/09/09 00:20:36;;;;;;;2.95;2.45;;;23.50;99.90;;;;;;5034837;28;20104;-70
2022/09/09 00:23:11;;;;;;;4.75;2.90;;;23.50;99.90;;;;;;5034548;28;20014;-71
2022/09/09 00:26:04;;;;;;;3.38;2.72;;;23.50;99.90;;;;;;5035009;28;20383;-71
2022/09/09 00:28:33;;;;;;;;;;;23.50;99.90;;;;;;5035084;28;20024;-71
2022/09/09 00:31:11;;;;;;;2.72;2.17;;;23.60;99.90;;;;;;5034665;28;20340;-70
2022/09/09 00:33:38;;;;;;;3.40;2.47;;;23.60;99.90;;;;;;5016695;28;20450;-70
2022/09/09 00:36:13;;;;;;;2.78;2.53;;;23.70;99.90;;;;;;5034397;28;20479;-70
2022/09/09 00:38:52;;;;;;;3.85;3.17;;;23.60;99.90;;;;;;5034447;28;20017;-71
2022/09/09 00:41:33;;;;;;;3.28;2.80;;;23.50;99.90;;;;;;5033590;28;20026;-71
2022/09/09 00:44:26;;;;;;;3.58;2.88;;;23.50;99.90;;;;;;5016501;28;20096;-70
2022/09/09 00:47:13;;;;;;;2.78;2.58;;;23.40;99.90;;;;;;5016593;28;20083;-71
2022/09/09 00:49:53;;;;;;;2.75;2.45;;;23.40;99.90;;;;;;5034370;28;20025;-70
2022/09/09 00:52:19;;;;;;;2.92;2.72;;;23.40;99.90;;;;;;5034095;28;20080;-70
2022/09/09 00:55:10;;;;;;;3.22;2.88;;;23.40;99.90;;;;;;5034101;28;20025;-70
2022/09/09 00:57:36;;;;;;;3.78;3.00;;;23.30;99.90;;;;;;5033950;28;20038;-70
2022/09/09 01:00:24;;;;;;;4.20;3.35;;;23.10;99.90;;;;;;5034120;28;20022;-70
2022/09/09 01:03:20;;;;;;;4.43;3.22;;;23.10;99.90;;;;;;5033733;28;20029;-70
2022/09/09 01:06:03;;;;;;;3.35;2.78;;;23.10;99.90;;;;;;5014090;28;20074;-70
2022/09/09 01:08:50;;;;;;;4.17;3.03;;;23.10;99.90;;;;;;5034077;28;20476;-70
2022/09/09 01:11:47;;;;;;;3.47;2.60;;;23.20;99.90;;;;;;5033441;28;20029;-70
2022/09/09 01:14:25;;;;;;;5.15;3.00;;;23.30;99.90;;;;;;4979685;28;20103;-70
2022/09/09 01:16:56;;;;;;;2.80;2.47;;;23.20;99.90;;;;;;5033664;28;20037;-70
2022/09/09 01:19:43;;;;;;;2.85;2.20;;;23.20;99.90;;;;;;5033750;28;20026;-71
2022/09/09 01:22:35;;;;;;;2.20;2.00;;;23.30;99.90;;;;;;5015990;28;20072;-70
2022/09/09 01:25:37;;;;;;;2.83;2.40;;;23.40;99.90;;;;;;5016006;28;20030;-70
2022/09/09 01:28:09;;;;;;;1.85;1.70;;;23.40;99.90;;;;;;5033642;28;20025;-71
2022/09/09 01:30:38;;;;;;;2.83;2.53;;;23.40;99.90;;;;;;5033710;28;20018;-70
2022/09/09 01:33:04;;;;;;;2.88;2.67;;;23.40;99.90;;;;;;5033634;28;20030;-71
2022/09/09 01:35:54;;;;;;;3.50;3.17;;;23.50;99.90;;;;;;5015591;28;20427;-71
2022/09/09 01:38:20;;;;;;;5.25;4.03;;;23.50;99.90;;;;;;5033424;28;20030;-71
2022/09/09 01:40:46;;;;;;;6.35;4.53;;;23.50;99.90;;;;;;5033335;28;20029;-70
2022/09/09 01:43:12;;;;;;;4.78;4.15;;;23.50;99.90;;;;;;5033501;28;20024;-70
2022/09/09 01:45:40;;;;;;;4.80;4.22;;;23.40;99.90;;;;;;5033369;28;20025;-71
2022/09/09 01:48:06;;;;;;;4.40;4.00;;;23.40;99.90;;;;;;5015609;28;20022;-71
2022/09/09 01:50:32;;;;;;;5.07;3.97;;;23.30;99.90;;;;;;5033419;28;20084;-70
2022/09/09 01:52:59;;;;;;;7.18;5.72;;;23.20;99.90;;;;;;5032448;28;20025;-71
2022/09/09 01:55:31;;;;;;;4.97;4.47;;;22.90;99.90;;;;;;5032984;28;20052;-70
2022/09/09 01:58:06;;;;;;;4.15;3.83;;;22.70;99.90;;;;;;5033443;28;20053;-71
2022/09/09 02:00:38;;;;;;;3.90;3.60;;;22.70;99.90;;;;;;5015573;28;20028;-70
2022/09/09 02:03:19;;;;;;;3.92;3.40;;;22.70;99.90;;;;;;5033167;28;20500;-71
2022/09/09 02:05:48;;;;;;;7.95;5.72;;;22.70;99.90;;;;;;5033271;28;20052;-71
2022/09/09 02:08:20;;;;;;;6.35;5.47;;;22.70;99.90;;;;;;5032933;28;20025;-70
2022/09/09 02:11:04;;;;;;;4.78;4.18;;;22.30;99.90;;;;;;5033191;28;20029;-70
2022/09/09 02:13:34;;;;;;;6.63;5.60;;;22.20;99.90;;;;;;5033062;28;20029;-70
2022/09/09 02:16:08;;;;;;;18.08;8.15;;;22.10;99.90;;;;;;5015326;28;20057;-69
2022/09/09 02:18:54;;;;;;;9.80;8.02;;;21.80;99.90;;;;;;5033036;28;20376;-72
2022/09/09 02:21:22;;;;;;;11.43;7.57;;;21.50;99.90;;;;;;4982888;28;20034;-69
2022/09/09 02:23:51;;;;;;;9.07;7.13;;;21.10;99.90;;;;;;5032837;28;20041;-72
2022/09/09 02:26:21;;;;;;;9.00;7.18;;;20.90;99.90;;;;;;5032996;28;20033;-69
2022/09/09 02:28:53;;;;;;;10.43;7.75;;;20.80;99.90;;;;;;5015371;28;20028;-69
2022/09/09 02:31:24;;;;;;;8.85;6.40;;;20.70;99.90;;;;;;5032840;28;20026;-72
2022/09/09 02:33:58;;;;;;;10.73;7.95;;;20.80;99.90;;;;;;5032962;28;20113;-72
2022/09/09 02:36:28;;;;;;;8.82;7.43;;;21.00;99.90;;;;;;5014954;28;20191;-71
2022/09/09 02:38:55;;;;;;;8.10;6.68;;;21.00;99.90;;;;;;5032857;28;20108;-71
2022/09/09 02:41:28;;;;;;;7.05;5.65;;;20.90;99.90;;;;;;5032912;28;20085;-69
2022/09/09 02:43:53;;;;;;;8.52;6.57;;;21.00;99.90;;;;;;5032794;28;20064;-72
2022/09/09 02:46:41;;;;;;;6.43;5.00;;;21.10;99.90;;;;;;5032928;28;20053;-72
2022/09/09 02:49:11;;;;;;;7.20;6.05;;;21.20;99.90;;;;;;5032805;28;20022;-72
2022/09/09 02:51:43;;;;;;;7.55;6.72;;;21.20;99.90;;;;;;5014905;28;20030;-72
2022/09/09 02:54:30;;;;;;;7.32;5.30;;;21.30;99.90;;;;;;5015210;28;20029;-71
2022/09/09 02:57:04;;;;;;;4.80;4.22;;;21.30;99.90;;;;;;5014876;28;20071;-69
2022/09/09 02:59:30;;;;;;;3.88;3.58;;;21.30;99.90;;;;;;5032815;28;20488;-72
2022/09/09 03:01:56;;;;;;;4.13;3.72;;;21.40;99.90;;;;;;5014889;28;20032;-73
2022/09/09 03:04:22;;;;;;;5.95;4.85;;;21.50;99.90;;;;;;5034680;28;20021;-71
2022/09/09 03:06:47;;;;;;;5.55;4.20;;;21.50;99.90;;;;;;5036094;28;20029;-72
2022/09/09 03:09:13;;;;;;;6.70;4.95;;;21.40;99.90;;;;;;5018407;28;20072;-73
2022/09/09 03:11:38;;;;;;;4.18;3.80;;;21.40;99.90;;;;;;5018223;28;20022;-70
2022/09/09 03:14:05;;;;;;;3.70;3.40;;;21.30;99.90;;;;;;5018408;28;20032;-72
2022/09/09 03:16:30;;;;;;;4.65;3.60;;;21.40;99.90;;;;;;5018254;28;20139;-71
2022/09/09 03:18:56;;;;;;;4.50;4.10;;;21.50;99.90;;;;;;5036141;28;20104;-71
2022/09/09 03:21:21;;;;;;;4.63;4.13;;;21.40;99.90;;;;;;5035434;28;20037;-71
2022/09/09 03:23:48;;;;;;;4.97;4.10;;;21.40;99.90;;;;;;5035859;28;20025;-72
2022/09/09 03:26:14;;;;;;;4.45;4.13;;;21.40;99.90;;;;;;5035849;28;20033;-71
2022/09/09 03:28:41;;;;;;;4.22;3.83;;;21.50;99.90;;;;;;5035896;28;20021;-72
2022/09/09 03:31:09;;;;;;;4.10;3.63;;;21.60;99.90;;;;;;5018086;28;20022;-71
2022/09/09 03:33:36;;;;;;;7.25;5.20;;;21.60;99.90;;;;;;5035645;28;20455;-71
2022/09/09 03:36:04;;;;;;;6.75;5.10;;;21.50;99.90;;;;;;5035481;28;20475;-72
2022/09/09 03:38:29;;;;;;;4.72;4.32;;;21.30;99.90;;;;;;5035653;28;20017;-71
2022/09/09 03:41:00;;;;;;;4.50;4.10;;;21.20;99.90;;;;;;5017701;28;20025;-71
2022/09/09 03:43:26;;;;;;;5.95;3.97;;;21.30;99.90;;;;;;5017718;28;20040;-71
2022/09/09 03:45:52;;;;;;;4.10;3.72;;;21.40;99.90;;;;;;5035514;28;20025;-71
2022/09/09 03:48:19;;;;;;;3.85;3.35;;;21.50;99.90;;;;;;5035321;28;20017;-71
2022/09/09 03:50:52;;;;;;;5.18;4.15;;;21.60;99.90;;;;;;5035243;28;20022;-71
2022/09/09 03:53:21;;;;;;;4.00;3.70;;;21.60;99.90;;;;;;5035204;28;20493;-71
2022/09/09 03:55:56;;;;;;;3.00;2.80;;;21.60;99.90;;;;;;5017395;28;20072;-71
2022/09/09 03:58:26;;;;;;;3.63;3.33;;;21.60;99.90;;;;;;5017647;28;20036;-71
2022/09/09 04:00:57;;;;;;;3.50;3.20;;;21.60;99.90;;;;;;5035033;28;20025;-72
2022/09/09 04:03:24;;;;;;;3.65;3.00;;;21.60;99.90;;;;;;5035284;28;20353;-71
2022/09/09 04:05:53;;;;;;;4.20;3.80;;;21.70;99.90;;;;;;5034932;28;20464;-71
2022/09/09 04:08:21;;;;;;;4.90;4.50;;;21.70;99.90;;;;;;5034937;28;20024;-71
2022/09/09 04:10:50;;;;;;;4.97;3.55;;;21.60;99.90;;;;;;5035147;28;20024;-71
2022/09/09 04:13:17;;;;;;;3.60;3.30;;;21.60;99.90;;;;;;5017218;28;20113;-71
2022/09/09 04:15:53;;;;;;;4.03;3.63;;;21.60;99.90;;;;;;5033884;28;20091;-71
2022/09/09 04:18:19;;;;;;;3.47;3.20;;;21.60;99.90;;;;;;5034796;28;20014;-71
2022/09/09 04:20:52;;;;;;;3.00;2.80;;;21.70;99.90;;;;;;5034774;28;20511;-71
2022/09/09 04:23:20;;;;;;;3.38;3.10;;;21.70;99.90;;;;;;5034840;28;20032;-71
2022/09/09 04:25:51;;;;;;;3.65;3.08;;;21.70;99.90;;;;;;5034727;28;20120;-71
2022/09/09 04:28:18;;;;;;;4.07;3.35;;;21.70;99.90;;;;;;5034687;28;20018;-72
2022/09/09 04:30:45;;;;;;;5.28;3.80;;;21.70;99.90;;;;;;5034758;28;20357;-72
2022/09/09 04:33:11;;;;;;;4.90;4.40;;;21.70;99.90;;;;;;5016724;28;20045;-71
2022/09/09 04:35:38;;;;;;;7.32;4.40;;;21.60;99.90;;;;;;5034751;28;20104;-70
2022/09/09 04:38:07;;;;;;;3.60;3.30;;;21.50;99.90;;;;;;5016807;28;20029;-71
2022/09/09 04:40:33;;;;;;;4.70;3.58;;;21.50;99.90;;;;;;5034478;28;20108;-71
2022/09/09 04:42:59;;;;;;;4.00;3.70;;;21.60;99.90;;;;;;5034277;28;20121;-72
2022/09/09 04:45:26;;;;;;;6.00;4.40;;;21.60;99.90;;;;;;5034516;28;20049;-71
2022/09/09 04:47:52;;;;;;;4.18;3.78;;;21.70;99.90;;;;;;5034197;28;20067;-71
2022/09/09 04:50:18;;;;;;;5.10;4.03;;;21.60;99.90;;;;;;5016414;28;20032;-71
2022/09/09 04:52:44;;;;;;;4.13;3.72;;;21.60;99.90;;;;;;5034241;28;20029;-72
2022/09/09 04:55:10;;;;;;;3.72;3.40;;;21.60;99.90;;;;;;5033890;28;20498;-71
2022/09/09 04:57:35;;;;;;;3.70;3.40;;;21.60;99.90;;;;;;5034044;28;20029;-71
2022/09/09 05:00:03;;;;;;;4.03;3.63;;;21.70;99.90;;;;;;5033869;28;20025;-70
2022/09/09 05:02:30;;;;;;;3.85;3.55;;;21.80;99.90;;;;;;5033875;28;20017;-72
2022/09/09 05:04:56;;;;;;;4.97;4.57;;;21.70;99.90;;;;;;5033717;28;20022;-70
2022/09/09 05:07:21;;;;;;;4.38;3.97;;;21.60;99.90;;;;;;5015073;28;20488;-70
2022/09/09 05:09:49;;;;;;;4.30;3.90;;;21.60;99.90;;;;;;5032886;28;20022;-71
2022/09/09 05:12:18;;;;;;;4.40;3.60;;;21.70;99.90;;;;;;5033400;28;20025;-70
2022/09/09 05:14:44;;;;;;;4.10;3.80;;;21.80;99.90;;;;;;5033612;28;20029;-70
2022/09/09 05:17:10;;;;;;;5.30;4.80;;;21.80;99.90;;;;;;5015250;28;20483;-71
2022/09/09 05:19:36;;;;;;;6.15;4.57;;;21.70;99.90;;;;;;5031408;28;20022;-70
2022/09/09 05:22:02;;;;;;;4.72;4.32;;;21.70;99.90;;;;;;5004314;28;20357;-70
2022/09/09 05:24:28;;;;;;;4.50;4.13;;;21.70;99.90;;;;;;5021509;28;20430;-70
2022/09/09 05:26:54;;;;;;;5.97;4.40;;;21.70;99.90;;;;;;5018594;28;20025;-70
2022/09/09 05:29:19;;;;;;;5.20;4.75;;;21.80;99.90;;;;;;5000884;28;20030;-70
2022/09/09 05:31:46;;;;;;;6.20;4.43;;;21.70;99.90;;;;;;5003196;28;20025;-71
2022/09/09 05:34:12;;;;;;;5.47;4.13;;;21.70;99.90;;;;;;5011718;28;20103;-71
2022/09/09 05:36:38;;;;;;;3.80;3.50;;;21.80;99.90;;;;;;5022127;28;20030;-72
2022/09/09 05:39:04;;;;;;;4.78;3.97;;;21.90;99.90;;;;;;5020932;28;20392;-71
2022/09/09 05:41:31;;;;;;;6.15;5.25;;;22.00;99.90;;;;;;5023237;28;20033;-73
2022/09/09 05:44:01;;;;;;;6.60;4.68;;;22.00;99.90;;;;;;5025407;28;20022;-71
2022/09/09 05:46:27;;;;;;;5.25;4.35;;;22.10;99.90;;;;;;5009007;28;20025;-71
2022/09/09 05:48:53;;;;;;;4.55;4.15;;;22.10;99.90;;;;;;5011796;28;20201;-70
2022/09/09 05:51:22;;;;;;;4.55;4.18;;;22.40;99.90;;;;;;5009966;28;20120;-73
2022/09/09 05:53:48;;;;;;;4.47;4.07;;;23.10;99.90;;;;;;5023567;28;20100;-73
2022/09/09 05:56:20;;;;;;;4.47;4.10;;;23.90;99.90;;;;;;5018919;28;20454;-70
2022/09/09 05:58:47;;;;;;;5.93;4.95;;;23.90;99.90;;;;;;5030572;28;20045;-72
2022/09/09 06:01:14;;;;;;;4.32;4.03;;;24.40;99.90;;;;;;5031774;28;20025;-71
2022/09/09 06:03:42;;;;;;;4.03;3.72;;;24.60;99.90;;;;;;5031600;28;20040;-72
2022/09/09 06:06:10;;;;;;;4.65;4.00;;;25.00;99.90;;;;;;5013053;28;20028;-70
2022/09/09 06:08:38;;;;;;;4.68;4.28;;;25.40;99.90;;;;;;5031459;28;20013;-71
2022/09/09 06:11:06;;;;;;;4.28;3.67;;;26.20;99.90;;;;;;5014787;28;20026;-71
2022/09/09 06:13:32;;;;;;;4.00;3.60;;;25.90;99.90;;;;;;5021426;28;20030;-70
2022/09/09 06:15:58;;;;;;;3.95;3.65;;;25.80;99.90;;;;;;5025022;28;20025;-70
2022/09/09 06:18:25;;;;;;;3.47;3.17;;;25.70;99.90;;;;;;5009516;28;20061;-72
2022/09/09 06:21:04;;;;;;;3.25;3.05;;;25.40;99.90;;;;;;5020879;28;20139;-71
2022/09/09 06:23:30;;;;;;;3.58;3.28;;;25.10;99.90;;;;;;5012285;28;20022;-70
2022/09/09 06:26:09;;;;;;;4.18;3.78;;;24.90;99.90;;;;;;5011073;28;20028;-73
2022/09/09 06:28:36;;;;;;;4.25;3.05;;;24.80;99.90;;;;;;5020195;28;20030;-70
2022/09/09 06:31:06;;;;;;;3.75;3.45;;;24.70;99.90;;;;;;5026640;28;20152;-70
2022/09/09 06:33:34;;;;;;;3.60;3.30;;;24.70;99.90;;;;;;5024083;28;20352;-70
2022/09/09 06:36:04;;;;;;;4.90;3.80;;;24.80;99.90;;;;;;5023521;28;20101;-72
2022/09/09 06:38:30;;;;;;;3.90;3.50;;;24.90;99.90;;;;;;5021375;28;20096;-72
2022/09/09 06:40:58;;;;;;;5.25;3.85;;;25.10;99.90;;;;;;5026483;28;20022;-70
2022/09/09 06:43:25;;;;;;;6.07;5.20;;;25.10;99.90;;;;;;5031355;28;20334;-71
2022/09/09 06:46:03;;;;;;;5.82;5.22;;;25.10;99.90;;;;;;5034350;28;20032;-70
2022/09/09 06:48:29;;;;;;;4.78;4.32;;;25.20;99.90;;;;;;5016879;28;20052;-70
2022/09/09 06:51:06;;;;;;;4.95;4.45;;;25.70;99.90;;;;;;5016707;28;20604;-71
2022/09/09 06:53:34;;;;;;;5.28;4.57;;;25.60;99.90;;;;;;5015797;28;20109;-71
2022/09/09 06:56:22;;;;;;;4.00;3.70;;;25.30;99.90;;;;;;5032427;28;20080;-69
2022/09/09 06:59:08;;;;;;;3.45;3.17;;;26.10;99.90;;;;;;5014693;28;20411;-70
2022/09/09 07:01:37;;;;;;;3.17;2.88;;;28.70;99.90;;;;;;5005984;28;20030;-75
2022/09/09 07:04:07;;;;;;;3.75;2.88;;;32.00;97.10;;;;;;5015937;28;20041;-68
2022/09/09 07:06:43;;;;;;;3.70;2.50;;;34.00;87.20;;;;;;5033857;28;20025;-70
2022/09/09 07:09:10;;;;;;;2.95;2.75;;;35.00;77.20;;;;;;4997348;28;20038;-68
2022/09/09 07:11:45;;;;;;;3.53;3.00;;;36.00;72.40;;;;;;5018057;28;20148;-71
2022/09/09 07:14:14;;;;;;;3.80;3.00;;;36.90;68.10;;;;;;5035333;28;20063;-66
2022/09/09 07:16:45;;;;;;;2.65;2.45;;;35.60;68.80;;;;;;5032345;28;20030;-68
2022/09/09 07:19:15;;;;;;;3.72;3.00;;;35.80;68.70;;;;;;5034691;28;20017;-69
2022/09/09 07:21:41;;;;;;;3.58;2.90;;;37.10;65.60;;;;;;5034893;28;20491;-70
2022/09/09 07:24:10;;;;;;;3.28;2.50;;;37.30;61.60;;;;;;5015801;28;20553;-67
2022/09/09 07:26:38;;;;;;;2.13;1.98;;;37.30;64.50;;;;;;5014863;28;20087;-66
2022/09/09 07:29:04;;;;;;;2.85;2.58;;;38.10;62.50;;;;;;5025271;28;20060;-69
2022/09/09 07:31:33;;;;;;;2.55;2.35;;;39.00;59.10;;;;;;5025859;28;20112;-68
2022/09/09 07:34:00;;;;;;;2.80;2.60;;;40.10;57.10;;;;;;5032335;28;20464;-66
2022/09/09 07:36:28;;;;;;;4.15;2.38;;;39.80;55.60;;;;;;5032337;28;20041;-70
2022/09/09 07:39:09;;;;;;;3.60;2.83;;;38.50;55.40;;;;;;5013904;28;20060;-72
2022/09/09 07:41:47;;;;;;;2.85;2.63;;;37.70;57.30;;;;;;5016702;28;20032;-68
2022/09/09 07:44:16;;;;;;;2.65;2.22;;;38.30;57.10;;;;;;5031714;28;20103;-71
2022/09/09 07:46:42;;;;;;;2.47;2.28;;;38.70;54.80;;;;;;5029291;28;20064;-71
2022/09/09 07:49:09;;;;;;;2.97;2.78;;;37.20;56.10;;;;;;5029225;28;21276;-68
2022/09/09 07:51:38;;;;;;;4.03;2.55;;;35.70;57.60;;;;;;5031214;28;20024;-71
2022/09/09 07:54:09;;;;;;;3.40;2.97;;;34.50;59.10;;;;;;5029577;28;20040;-69
2022/09/09 07:56:37;;;;;;;4.63;3.05;;;33.60;61.60;;;;;;5013490;28;20080;-69
2022/09/09 07:59:06;;;;;;;4.00;3.33;;;33.10;66.10;;;;;;5030880;28;20026;-72
2022/09/09 08:01:37;;;;;;;3.15;2.92;;;32.60;64.70;;;;;;5027888;28;20048;-69
2022/09/09 08:04:15;;;;;;;3.15;2.95;;;32.40;67.80;;;;;;5030492;28;20022;-65
2022/09/09 08:06:43;;;;;;;2.38;2.28;;;32.90;67.70;;;;;;5009724;28;20394;-70
2022/09/09 08:09:10;;;;;;;9.45;4.07;;;33.10;68.80;;;;;;5020370;28;20026;-71
2022/09/09 08:11:37;;;;;;;3.40;3.10;;;33.00;68.10;;;;;;5025821;28;20072;-71
2022/09/09 08:14:04;;;;;;;2.92;2.72;;;32.40;69.10;;;;;;5021367;28;20026;-66
2022/09/09 08:16:32;;;;;;;2.90;2.70;;;32.30;70.10;;;;;;5031034;28;20120;-71
2022/09/09 08:18:58;;;;;;;3.35;2.60;;;32.00;72.80;;;;;;5013009;28;20474;-70
2022/09/09 08:21:29;;;;;;;3.63;3.33;;;31.80;73.20;;;;;;5031360;28;20104;-70
2022/09/09 08:23:56;;;;;;;2.85;2.65;;;31.60;72.00;;;;;;5012721;28;20095;-68
2022/09/09 08:26:30;;;;;;;3.45;3.15;;;31.40;73.50;;;;;;5013200;28;20527;-67
2022/09/09 08:28:58;;;;;;;3.95;3.20;;;31.70;72.70;;;;;;5024023;28;20072;-68
2022/09/09 08:31:36;;;;;;;3.03;2.83;;;31.80;73.00;;;;;;5033417;28;20034;-68
2022/09/09 08:34:04;;;;;;;3.25;2.95;;;31.90;72.70;;;;;;5032670;28;20021;-70
2022/09/09 08:36:35;;;;;;;2.55;2.35;;;32.60;74.40;;;;;;5014547;28;20029;-70
2022/09/09 08:39:02;;;;;;;2.75;2.35;;;34.00;71.20;;;;;;5033414;28;20152;-69
2022/09/09 08:41:34;;;;;;;2.92;2.72;;;34.90;66.50;;;;;;5033382;28;20026;-70
2022/09/09 08:44:49;;;;;;;2.60;2.40;;;35.60;61.40;;;;;;5012368;28;20030;-71
2022/09/09 08:47:34;;;;;;;3.92;2.80;;;35.90;61.10;;;;;;5029617;28;20317;-69
2022/09/09 08:50:00;;;;;;;2.47;2.28;;;36.20;62.70;;;;;;5028331;28;20498;-68
2022/09/09 08:52:51;;;;;;;2.50;2.30;;;36.30;61.90;;;;;;5027691;28;20033;-69
2022/09/09 08:55:25;;;;;;;3.20;2.90;;;36.40;61.40;;;;;;5027136;28;20049;-68
2022/09/09 08:57:57;;;;;;;2.88;2.60;;;36.10;60.80;;;;;;5025184;28;20025;-69
2022/09/09 09:00:35;;;;;;;3.05;2.67;;;35.80;61.80;;;;;;5013330;28;20029;-67
2022/09/09 09:03:11;;;;;;;4.03;2.40;;;35.50;60.90;;;;;;5007605;28;20022;-67
2022/09/09 09:05:59;;;;;;;2.92;2.70;;;35.10;64.50;;;;;;5018634;28;20032;-69
2022/09/09 09:08:48;;;;;;;2.40;2.20;;;35.00;61.00;;;;;;5016558;28;20029;-67
2022/09/09 09:11:14;;;;;;;2.60;2.25;;;34.90;59.50;;;;;;5010964;28;20038;-70
2022/09/09 09:13:47;;;;;;;2.22;2.03;;;35.00;62.50;;;;;;5010451;28;20028;-65
2022/09/09 09:16:32;;;;;;;3.38;2.17;;;35.40;61.10;;;;;;5021367;28;20488;-69
2022/09/09 09:18:59;;;;;;;1.85;1.75;;;35.20;58.70;;;;;;5028522;28;20035;-64
2022/09/09 09:21:39;;;;;;;3.28;2.15;;;34.60;61.70;;;;;;5010387;28;20022;-66
2022/09/09 09:24:14;;;;;;;3.38;2.00;;;34.20;59.20;;;;;;5030037;28;20032;-68
2022/09/09 09:26:43;;;;;;;1.85;1.70;;;34.10;60.50;;;;;;5028125;28;20033;-67
2022/09/09 09:29:19;;;;;;;2.92;1.67;;;34.60;61.30;;;;;;5029438;28;20029;-67
2022/09/09 09:32:04;;;;;;;6.05;1.83;;;34.80;59.00;;;;;;5012170;28;20053;-68
2022/09/09 09:34:30;;;;;;;2.50;2.10;;;34.40;59.40;;;;;;5009391;28;20021;-70
2022/09/09 09:37:04;;;;;;;2.45;2.25;;;33.90;61.50;;;;;;5028717;28;20018;-68
2022/09/09 09:39:39;;;;;;;3.60;2.53;;;33.70;62.60;;;;;;5027562;28;20115;-67
2022/09/09 09:42:14;;;;;;;2.92;2.05;;;33.70;62.70;;;;;;5028878;28;20506;-69
2022/09/09 09:44:41;;;;;;;3.05;2.10;;;33.50;59.20;;;;;;5026709;28;20021;-64
2022/09/09 09:47:15;;;;;;;2.30;2.13;;;33.30;62.70;;;;;;5029048;28;20025;-67
2022/09/09 09:49:59;;;;;;;2.00;1.90;;;33.20;61.10;;;;;;5029953;28;20017;-68
2022/09/09 09:52:30;;;;;;;2.75;2.00;;;33.30;63.10;;;;;;5030325;28;20033;-68
2022/09/09 09:54:59;;;;;;;2.20;2.00;;;33.70;60.40;;;;;;5024319;28;20025;-70
2022/09/09 09:57:31;;;;;;;2.72;2.00;;;33.50;59.20;;;;;;5025599;28;20041;-70
2022/09/09 10:00:09;;;;;;;2.90;2.50;;;33.00;59.50;;;;;;5029405;28;20021;-68
2022/09/09 10:02:40;;;;;;;2.60;2.10;;;32.80;61.10;;;;;;5028859;28;20029;-68
2022/09/09 10:05:15;;;;;;;3.37;2.20;;;33.30;61.50;;;;;;5025302;28;20033;-68
2022/09/09 10:07:43;;;;;;;1.95;1.75;;;33.90;61.60;;;;;;5026872;28;20278;-69
2022/09/09 10:10:15;;;;;;;2.78;2.13;;;34.20;61.10;;;;;;5028536;28;20045;-67
2022/09/09 10:12:53;;;;;;;1.65;1.55;;;34.30;61.10;;;;;;5009199;28;20030;-68
2022/09/09 10:15:55;;;;;;;2.10;1.90;;;34.20;61.20;;;;;;5012083;28;20041;-64
2022/09/09 10:18:57;;;;;;;3.35;2.13;;;34.00;59.50;;;;;;5020043;28;20030;-67
2022/09/09 10:21:29;;;;;;;1.58;1.48;;;33.80;58.30;;;;;;5021960;28;20045;-67
2022/09/09 10:24:23;;;;;;;2.95;1.92;;;34.00;61.50;;;;;;5033333;28;20509;-67
2022/09/09 10:27:18;;;;;;;1.80;1.70;;;33.70;59.40;;;;;;5033183;28;20021;-67
2022/09/09 10:30:18;;;;;;;2.40;1.70;;;33.80;60.70;;;;;;5022783;28;20029;-66
2022/09/09 10:32:51;;;;;;;1.65;1.30;;;33.80;59.60;;;;;;5027053;28;20073;-70
2022/09/09 10:35:51;;;;;;;3.03;1.80;;;34.00;60.00;;;;;;5032403;28;20037;-67
2022/09/09 10:38:37;;;;;;;2.38;1.98;;;34.20;59.20;;;;;;5036547;28;20047;-67
2022/09/09 10:41:11;;;;;;;2.33;1.58;;;34.00;60.70;;;;;;5034346;28;20029;-68
2022/09/09 10:43:42;;;;;;;3.58;1.58;;;33.70;60.30;;;;;;5033451;28;20452;-67
2022/09/09 10:46:49;;;;;;;1.60;1.33;;;33.80;58.20;;;;;;5031391;28;20038;-70
2022/09/09 10:49:58;;;;;;;1.83;1.20;;;33.70;59.10;;;;;;4964432;28;20280;-68
2022/09/09 10:52:41;;;;;;;2.25;1.40;;;33.60;58.50;;;;;;4990393;28;20061;-65
2022/09/09 10:55:26;;;;;;;1.50;1.40;;;33.40;57.90;;;;;;5010503;28;20018;-67
2022/09/09 10:57:55;;;;;;;1.58;1.25;;;33.20;61.40;;;;;;5012479;28;20045;-66
2022/09/09 11:00:34;;;;;;;1.35;1.13;;;33.30;61.80;;;;;;5011635;28;20050;-66
2022/09/09 11:03:04;;;;;;;2.13;1.38;;;33.50;59.60;;;;;;5011532;28;20076;-68
2022/09/09 11:05:44;;;;;;;1.77;1.40;;;33.70;60.40;;;;;;5015175;28;20033;-66
2022/09/09 11:08:11;;;;;;;1.95;1.42;;;33.70;58.80;;;;;;5010840;28;20092;-67
2022/09/09 11:10:43;;;;;;;1.83;1.23;;;33.70;58.50;;;;;;5010291;28;20379;-68
2022/09/09 11:13:22;;;;;;;0.93;0.93;;;33.90;58.00;;;;;;5011336;28;20056;-66
2022/09/09 11:15:56;;;;;;;1.00;1.00;;;33.90;57.30;;;;;;5010679;28;20527;-65
2022/09/09 11:18:23;;;;;;;1.30;1.20;;;34.00;57.70;;;;;;5016261;28;20487;-68
2022/09/09 11:20:56;;;;;;;1.25;1.15;;;33.90;57.30;;;;;;5031690;28;20041;-67
2022/09/09 11:23:40;;;;;;;1.30;1.20;;;33.70;57.80;;;;;;5027515;28;20026;-70
2022/09/09 11:26:10;;;;;;;1.17;1.08;;;33.70;57.90;;;;;;5029095;28;20021;-67
2022/09/09 11:28:45;;;;;;;1.20;1.10;;;33.40;58.40;;;;;;5031738;28;20076;-67
2022/09/09 11:31:19;;;;;;;1.45;1.05;;;33.30;58.90;;;;;;5031354;28;20025;-68
2022/09/09 11:34:04;;;;;;;1.30;1.10;;;33.30;58.30;;;;;;5031055;28;20013;-67
2022/09/09 11:37:09;;;;;;;1.55;1.30;;;33.30;59.00;;;;;;5012598;28;20091;-68
2022/09/09 11:40:00;;;;;;;2.47;1.30;;;33.20;59.20;;;;;;5000634;28;20397;-67
2022/09/09 11:42:28;;;;;;;1.58;1.38;;;33.40;58.30;;;;;;5025878;28;20025;-68
2022/09/09 11:44:54;;;;;;;1.60;1.50;;;33.40;58.40;;;;;;5030751;28;20025;-66
2022/09/09 11:47:31;;;;;;;1.40;1.30;;;33.30;58.80;;;;;;5032376;28;20105;-68
2022/09/09 11:50:15;;;;;;;1.48;1.27;;;33.50;59.20;;;;;;5032110;28;20377;-66
2022/09/09 11:52:45;;;;;;;1.48;1.27;;;33.70;57.20;;;;;;5027993;28;20025;-67
2022/09/09 11:55:31;;;;;;;1.80;1.40;;;33.60;57.60;;;;;;4922306;28;3017687;-66
2022/09/09 11:58:01;;;;;;;2.30;1.27;;;33.70;57.10;;;;;;5021082;28;20071;-67
2022/09/09 12:00:33;;;;;;;1.45;1.08;;;33.40;57.90;;;;;;5031847;28;20096;-70
2022/09/09 12:02:59;;;;;;;1.40;1.30;;;33.70;60.70;;;;;;5033372;28;20033;-68
2022/09/09 12:05:40;;;;;;;1.80;0.93;;;34.40;58.00;;;;;;5033081;28;20494;-69
2022/09/09 12:08:09;;;;;;;2.20;1.30;;;34.50;58.00;;;;;;5029035;28;20021;-66
2022/09/09 12:10:41;;;;;;;1.67;1.27;;;34.30;58.90;;;;;;5025686;28;20556;-65
2022/09/09 12:13:19;;;;;;;1.45;1.00;;;34.50;57.30;;;;;;5028883;28;20099;-65
2022/09/09 12:15:50;;;;;;;2.35;1.17;;;34.90;56.00;;;;;;5028474;28;20091;-67
2022/09/09 12:18:31;;;;;;;1.33;1.23;;;34.80;54.70;;;;;;5027846;28;20487;-68
2022/09/09 12:21:16;;;;;;;1.30;1.02;;;34.90;60.80;;;;;;5030318;28;20452;-69
2022/09/09 12:23:52;;;;;;;1.00;1.00;;;35.20;55.80;;;;;;5030847;28;20369;-69
2022/09/09 12:26:48;;;;;;;1.48;1.00;;;35.60;57.20;;;;;;5030069;28;20052;-70
2022/09/09 12:29:23;;;;;;;0.95;0.85;;;36.10;52.20;;;;;;5028903;28;20158;-71
2022/09/09 12:32:08;;;;;;;1.13;0.82;;;36.50;53.60;;;;;;5030249;28;20025;-71
2022/09/09 12:34:51;;;;;;;1.75;1.00;;;36.40;52.80;;;;;;5030976;28;20143;-71
2022/09/09 12:37:37;;;;;;;1.15;1.00;;;36.50;53.50;;;;;;5031154;28;20028;-69
2022/09/09 12:40:29;;;;;;;2.90;1.23;;;36.40;52.80;;;;;;5032140;28;20049;-70
2022/09/09 12:42:55;;;;;;;1.90;1.00;;;36.30;52.20;;;;;;5020217;28;20032;-68
2022/09/09 12:45:24;;;;;;;1.38;1.15;;;35.90;53.60;;;;;;5024898;28;20021;-71
2022/09/09 12:48:11;;;;;;;1.85;1.13;;;35.60;53.50;;;;;;5032589;28;20021;-68
2022/09/09 12:50:45;;;;;;;21.10;4.53;;;35.60;51.80;;;;;;5032176;28;20018;-68
2022/09/09 12:53:20;;;;;;;12.90;3.47;;;35.40;54.60;;;;;;5031975;28;20067;-68
2022/09/09 12:56:02;;;;;;;4.22;1.88;;;35.60;53.00;;;;;;5030939;28;20124;-71
2022/09/09 12:58:32;;;;;;;;;;;36.00;53.40;;;;;;5032618;28;20026;-72
2022/09/09 13:00:59;;;;;;;2.15;1.38;;;36.20;51.70;;;;;;5031549;28;20306;-68
2022/09/09 13:03:26;;;;;;;1.98;1.23;;;35.90;52.70;;;;;;5015190;28;20420;-70
2022/09/09 13:05:53;;;;;;;1.42;1.15;;;35.40;54.00;;;;;;5031056;28;20022;-69
2022/09/09 13:08:20;;;;;;;2.80;1.23;;;35.30;54.80;;;;;;5031068;28;20510;-69
2022/09/09 13:11:00;;;;;;;2.13;1.40;;;35.40;54.70;;;;;;5031983;28;20029;-71
2022/09/09 13:13:36;;;;;;;1.85;1.10;;;35.50;51.90;;;;;;5032246;28;20017;-69
2022/09/09 13:16:06;;;;;;;1.00;0.90;;;35.60;54.30;;;;;;5032135;28;20534;-68
2022/09/09 13:18:38;;;;;;;1.52;1.25;;;35.70;55.10;;;;;;5032589;28;20456;-70
2022/09/09 13:21:04;;;;;;;1.20;1.10;;;36.00;52.30;;;;;;5015644;28;20039;-69